sensor_id;sensor_type;location;lat;lon;timestamp;P1;durP1;ratioP1;P2;durP2;ratioP2
35056;SDS011;21241;51.828;19.574;2024-01-11T00:00:43;74.50;;;59.60;;
35056;SDS011;21241;51.828;19.574;2024-01-11T00:03:31;66.70;;;57.50;;
35056;SDS011;21241;51.828;19.574;2024-01-11T00:06:00;64.30;;;55.90;;
35056;SDS011;21241;51.828;19.574;2024-01-11T00:08:28;65.40;;;52.40;;
35056;SDS011;21241;51.828;19.574;2024-01-11T00:10:56;64.20;;;54.20;;
35056;SDS011;21241;51.828;19.574;2024-01-11T00:13:24;63.80;;;54.30;;
35056;SDS011;21241;51.828;19.574;2024-01-11T00:15:52;63.80;;;53.60;;
35056;SDS011;21241;51.828;19.574;2024-01-11T00:18:20;62.30;;;51.20;;
35056;SDS011;21241;51.828;19.574;2024-01-11T00:20:48;64.90;;;52.90;;
35056;SDS011;21241;51.828;19.574;2024-01-11T00:23:16;65.10;;;52.00;;
35056;SDS011;21241;51.828;19.574;2024-01-11T00:25:44;61.50;;;51.60;;
35056;SDS011;21241;51.828;19.574;2024-01-11T00:28:11;62.10;;;52.20;;
35056;SDS011;21241;51.828;19.574;2024-01-11T00:30:39;63.70;;;53.90;;
35056;SDS011;21241;51.828;19.574;2024-01-11T00:33:07;65.20;;;54.60;;
35056;SDS011;21241;51.828;19.574;2024-01-11T00:35:36;71.10;;;60.10;;
35056;SDS011;21241;51.828;19.574;2024-01-11T00:38:04;74.10;;;59.60;;
35056;SDS011;21241;51.828;19.574;2024-01-11T00:40:32;76.00;;;61.20;;
35056;SDS011;21241;51.828;19.574;2024-01-11T00:43:00;75.60;;;63.70;;
35056;SDS011;21241;51.828;19.574;2024-01-11T00:45:28;71.30;;;57.50;;
35056;SDS011;21241;51.828;19.574;2024-01-11T00:47:56;70.50;;;57.20;;
35056;SDS011;21241;51.828;19.574;2024-01-11T00:50:24;64.70;;;55.10;;
35056;SDS011;21241;51.828;19.574;2024-01-11T00:52:52;70.10;;;57.80;;
35056;SDS011;21241;51.828;19.574;2024-01-11T00:55:19;69.30;;;54.60;;
35056;SDS011;21241;51.828;19.574;2024-01-11T00:57:47;60.00;;;51.50;;
35056;SDS011;21241;51.828;19.574;2024-01-11T01:00:15;70.40;;;55.50;;
35056;SDS011;21241;51.828;19.574;2024-01-11T01:02:43;66.00;;;54.80;;
35056;SDS011;21241;51.828;19.574;2024-01-11T01:05:11;64.00;;;52.60;;
35056;SDS011;21241;51.828;19.574;2024-01-11T01:07:39;64.80;;;54.20;;
35056;SDS011;21241;51.828;19.574;2024-01-11T01:10:08;60.50;;;52.50;;
35056;SDS011;21241;51.828;19.574;2024-01-11T01:12:36;65.50;;;53.30;;
35056;SDS011;21241;51.828;19.574;2024-01-11T01:15:04;65.30;;;53.70;;
35056;SDS011;21241;51.828;19.574;2024-01-11T01:17:32;65.40;;;55.20;;
35056;SDS011;21241;51.828;19.574;2024-01-11T01:20:00;60.50;;;50.80;;
35056;SDS011;21241;51.828;19.574;2024-01-11T01:22:28;63.20;;;50.90;;
35056;SDS011;21241;51.828;19.574;2024-01-11T01:24:56;59.40;;;50.10;;
35056;SDS011;21241;51.828;19.574;2024-01-11T01:27:24;59.00;;;52.10;;
35056;SDS011;21241;51.828;19.574;2024-01-11T01:29:52;63.40;;;51.50;;
35056;SDS011;21241;51.828;19.574;2024-01-11T01:32:20;67.40;;;57.90;;
35056;SDS011;21241;51.828;19.574;2024-01-11T01:34:48;72.30;;;58.90;;
35056;SDS011;21241;51.828;19.574;2024-01-11T01:37:16;77.50;;;65.90;;
35056;SDS011;21241;51.828;19.574;2024-01-11T01:39:44;83.00;;;68.20;;
35056;SDS011;21241;51.828;19.574;2024-01-11T01:42:14;86.80;;;70.70;;
35056;SDS011;21241;51.828;19.574;2024-01-11T01:44:41;91.50;;;75.50;;
35056;SDS011;21241;51.828;19.574;2024-01-11T01:47:09;87.90;;;75.70;;
35056;SDS011;21241;51.828;19.574;2024-01-11T01:49:38;88.60;;;73.40;;
35056;SDS011;21241;51.828;19.574;2024-01-11T01:52:06;90.90;;;72.70;;
35056;SDS011;21241;51.828;19.574;2024-01-11T01:54:35;88.70;;;73.80;;
35056;SDS011;21241;51.828;19.574;2024-01-11T01:57:03;85.70;;;70.50;;
35056;SDS011;21241;51.828;19.574;2024-01-11T01:59:31;94.30;;;75.00;;
35056;SDS011;21241;51.828;19.574;2024-01-11T02:01:59;86.90;;;70.70;;
35056;SDS011;21241;51.828;19.574;2024-01-11T02:04:27;83.30;;;69.10;;
35056;SDS011;21241;51.828;19.574;2024-01-11T02:06:55;84.80;;;69.10;;
35056;SDS011;21241;51.828;19.574;2024-01-11T02:09:24;84.80;;;71.00;;
35056;SDS011;21241;51.828;19.574;2024-01-11T02:11:52;83.70;;;64.80;;
35056;SDS011;21241;51.828;19.574;2024-01-11T02:14:21;85.10;;;69.90;;
35056;SDS011;21241;51.828;19.574;2024-01-11T02:16:48;85.40;;;69.80;;
35056;SDS011;21241;51.828;19.574;2024-01-11T02:19:17;84.00;;;69.20;;
35056;SDS011;21241;51.828;19.574;2024-01-11T02:21:46;82.50;;;67.70;;
35056;SDS011;21241;51.828;19.574;2024-01-11T02:24:17;80.70;;;67.00;;
35056;SDS011;21241;51.828;19.574;2024-01-11T02:27:01;72.80;;;61.50;;
35056;SDS011;21241;51.828;19.574;2024-01-11T02:29:30;71.30;;;59.10;;
35056;SDS011;21241;51.828;19.574;2024-01-11T02:31:59;75.80;;;62.40;;
35056;SDS011;21241;51.828;19.574;2024-01-11T02:34:27;79.30;;;66.20;;
35056;SDS011;21241;51.828;19.574;2024-01-11T02:36:56;78.40;;;65.30;;
35056;SDS011;21241;51.828;19.574;2024-01-11T02:39:24;76.90;;;66.30;;
35056;SDS011;21241;51.828;19.574;2024-01-11T02:41:52;77.70;;;66.10;;
35056;SDS011;21241;51.828;19.574;2024-01-11T02:44:24;73.50;;;63.10;;
35056;SDS011;21241;51.828;19.574;2024-01-11T02:46:52;82.80;;;66.00;;
35056;SDS011;21241;51.828;19.574;2024-01-11T02:49:20;76.50;;;63.80;;
35056;SDS011;21241;51.828;19.574;2024-01-11T02:51:48;73.20;;;63.30;;
35056;SDS011;21241;51.828;19.574;2024-01-11T02:54:16;75.00;;;63.40;;
35056;SDS011;21241;51.828;19.574;2024-01-11T02:56:44;73.40;;;61.80;;
35056;SDS011;21241;51.828;19.574;2024-01-11T02:59:11;70.70;;;60.70;;
35056;SDS011;21241;51.828;19.574;2024-01-11T03:01:39;71.90;;;60.20;;
35056;SDS011;21241;51.828;19.574;2024-01-11T03:04:07;75.70;;;61.40;;
35056;SDS011;21241;51.828;19.574;2024-01-11T03:06:35;76.50;;;63.70;;
35056;SDS011;21241;51.828;19.574;2024-01-11T03:09:03;82.80;;;68.30;;
35056;SDS011;21241;51.828;19.574;2024-01-11T03:11:30;76.90;;;65.80;;
35056;SDS011;21241;51.828;19.574;2024-01-11T03:13:58;73.40;;;62.80;;
35056;SDS011;21241;51.828;19.574;2024-01-11T03:16:26;70.50;;;60.90;;
35056;SDS011;21241;51.828;19.574;2024-01-11T03:18:54;71.90;;;60.40;;
35056;SDS011;21241;51.828;19.574;2024-01-11T03:21:21;70.90;;;57.80;;
35056;SDS011;21241;51.828;19.574;2024-01-11T03:23:49;73.80;;;62.60;;
35056;SDS011;21241;51.828;19.574;2024-01-11T03:26:17;78.00;;;65.10;;
35056;SDS011;21241;51.828;19.574;2024-01-11T03:28:45;72.90;;;62.70;;
35056;SDS011;21241;51.828;19.574;2024-01-11T03:31:13;69.50;;;58.90;;
35056;SDS011;21241;51.828;19.574;2024-01-11T03:33:41;66.10;;;58.50;;
35056;SDS011;21241;51.828;19.574;2024-01-11T03:36:10;65.00;;;57.30;;
35056;SDS011;21241;51.828;19.574;2024-01-11T03:38:38;72.20;;;59.50;;
35056;SDS011;21241;51.828;19.574;2024-01-11T03:41:10;68.90;;;58.10;;
35056;SDS011;21241;51.828;19.574;2024-01-11T03:43:38;72.10;;;60.50;;
35056;SDS011;21241;51.828;19.574;2024-01-11T03:46:06;77.10;;;63.90;;
35056;SDS011;21241;51.828;19.574;2024-01-11T03:48:34;80.60;;;67.90;;
35056;SDS011;21241;51.828;19.574;2024-01-11T03:51:05;73.90;;;63.50;;
35056;SDS011;21241;51.828;19.574;2024-01-11T03:53:34;79.50;;;68.40;;
35056;SDS011;21241;51.828;19.574;2024-01-11T03:56:05;78.50;;;67.60;;
35056;SDS011;21241;51.828;19.574;2024-01-11T03:58:33;84.40;;;69.20;;
35056;SDS011;21241;51.828;19.574;2024-01-11T04:01:03;83.10;;;68.30;;
35056;SDS011;21241;51.828;19.574;2024-01-11T04:03:31;82.30;;;71.40;;
35056;SDS011;21241;51.828;19.574;2024-01-11T04:05:59;80.00;;;69.30;;
35056;SDS011;21241;51.828;19.574;2024-01-11T04:08:27;83.20;;;70.30;;
35056;SDS011;21241;51.828;19.574;2024-01-11T04:10:55;79.70;;;67.60;;
35056;SDS011;21241;51.828;19.574;2024-01-11T04:13:26;86.20;;;70.40;;
35056;SDS011;21241;51.828;19.574;2024-01-11T04:15:54;84.40;;;71.80;;
35056;SDS011;21241;51.828;19.574;2024-01-11T04:18:21;86.30;;;74.30;;
35056;SDS011;21241;51.828;19.574;2024-01-11T04:20:50;85.30;;;74.40;;
35056;SDS011;21241;51.828;19.574;2024-01-11T04:23:18;89.30;;;75.60;;
35056;SDS011;21241;51.828;19.574;2024-01-11T04:25:46;94.50;;;78.30;;
35056;SDS011;21241;51.828;19.574;2024-01-11T04:28:14;88.30;;;75.90;;
35056;SDS011;21241;51.828;19.574;2024-01-11T04:30:42;87.40;;;74.30;;
35056;SDS011;21241;51.828;19.574;2024-01-11T04:33:10;94.50;;;79.10;;
35056;SDS011;21241;51.828;19.574;2024-01-11T04:35:38;91.10;;;77.00;;
35056;SDS011;21241;51.828;19.574;2024-01-11T04:38:06;92.30;;;81.10;;
35056;SDS011;21241;51.828;19.574;2024-01-11T04:40:34;92.60;;;78.60;;
35056;SDS011;21241;51.828;19.574;2024-01-11T04:43:02;95.90;;;80.30;;
35056;SDS011;21241;51.828;19.574;2024-01-11T04:45:29;92.30;;;78.80;;
35056;SDS011;21241;51.828;19.574;2024-01-11T04:47:57;91.30;;;77.30;;
35056;SDS011;21241;51.828;19.574;2024-01-11T04:50:26;94.00;;;76.70;;
35056;SDS011;21241;51.828;19.574;2024-01-11T04:52:53;93.10;;;78.60;;
35056;SDS011;21241;51.828;19.574;2024-01-11T04:55:22;91.10;;;76.60;;
35056;SDS011;21241;51.828;19.574;2024-01-11T04:57:49;88.30;;;77.20;;
35056;SDS011;21241;51.828;19.574;2024-01-11T05:00:17;90.60;;;77.70;;
35056;SDS011;21241;51.828;19.574;2024-01-11T05:02:45;93.90;;;78.60;;
35056;SDS011;21241;51.828;19.574;2024-01-11T05:05:13;88.70;;;75.60;;
35056;SDS011;21241;51.828;19.574;2024-01-11T05:07:41;86.80;;;74.60;;
35056;SDS011;21241;51.828;19.574;2024-01-11T05:10:09;87.80;;;72.90;;
35056;SDS011;21241;51.828;19.574;2024-01-11T05:12:37;88.00;;;75.00;;
35056;SDS011;21241;51.828;19.574;2024-01-11T05:15:06;87.00;;;73.30;;
35056;SDS011;21241;51.828;19.574;2024-01-11T05:17:36;85.40;;;75.60;;
35056;SDS011;21241;51.828;19.574;2024-01-11T05:20:04;89.60;;;76.70;;
35056;SDS011;21241;51.828;19.574;2024-01-11T05:22:33;89.30;;;75.40;;
35056;SDS011;21241;51.828;19.574;2024-01-11T05:25:01;86.50;;;73.20;;
35056;SDS011;21241;51.828;19.574;2024-01-11T05:27:29;89.80;;;73.20;;
35056;SDS011;21241;51.828;19.574;2024-01-11T05:29:57;89.50;;;75.70;;
35056;SDS011;21241;51.828;19.574;2024-01-11T05:32:25;87.70;;;73.00;;
35056;SDS011;21241;51.828;19.574;2024-01-11T05:34:53;88.50;;;74.00;;
35056;SDS011;21241;51.828;19.574;2024-01-11T05:37:21;87.20;;;74.70;;
35056;SDS011;21241;51.828;19.574;2024-01-11T05:39:48;86.90;;;75.80;;
35056;SDS011;21241;51.828;19.574;2024-01-11T05:42:16;87.80;;;75.80;;
35056;SDS011;21241;51.828;19.574;2024-01-11T05:44:44;91.90;;;78.20;;
35056;SDS011;21241;51.828;19.574;2024-01-11T05:47:12;90.60;;;74.60;;
35056;SDS011;21241;51.828;19.574;2024-01-11T05:49:40;93.30;;;77.90;;
35056;SDS011;21241;51.828;19.574;2024-01-11T05:52:08;93.20;;;78.20;;
35056;SDS011;21241;51.828;19.574;2024-01-11T05:54:35;88.70;;;77.20;;
35056;SDS011;21241;51.828;19.574;2024-01-11T05:57:03;87.80;;;74.30;;
35056;SDS011;21241;51.828;19.574;2024-01-11T05:59:31;89.50;;;73.70;;
35056;SDS011;21241;51.828;19.574;2024-01-11T06:01:59;85.70;;;75.70;;
35056;SDS011;21241;51.828;19.574;2024-01-11T06:04:29;84.10;;;69.60;;
35056;SDS011;21241;51.828;19.574;2024-01-11T06:06:57;82.90;;;68.50;;
35056;SDS011;21241;51.828;19.574;2024-01-11T06:09:25;74.40;;;64.00;;
35056;SDS011;21241;51.828;19.574;2024-01-11T06:11:53;68.80;;;59.30;;
35056;SDS011;21241;51.828;19.574;2024-01-11T06:14:21;70.80;;;62.50;;
35056;SDS011;21241;51.828;19.574;2024-01-11T06:16:49;65.90;;;58.70;;
35056;SDS011;21241;51.828;19.574;2024-01-11T06:19:17;63.80;;;56.80;;
35056;SDS011;21241;51.828;19.574;2024-01-11T06:21:45;66.70;;;58.10;;
35056;SDS011;21241;51.828;19.574;2024-01-11T06:24:14;64.60;;;56.90;;
35056;SDS011;21241;51.828;19.574;2024-01-11T06:26:41;65.70;;;56.50;;
35056;SDS011;21241;51.828;19.574;2024-01-11T06:29:09;66.60;;;56.70;;
35056;SDS011;21241;51.828;19.574;2024-01-11T06:31:37;66.20;;;57.40;;
35056;SDS011;21241;51.828;19.574;2024-01-11T06:34:05;64.60;;;55.00;;
35056;SDS011;21241;51.828;19.574;2024-01-11T06:36:33;62.10;;;55.30;;
35056;SDS011;21241;51.828;19.574;2024-01-11T06:39:01;63.00;;;53.40;;
35056;SDS011;21241;51.828;19.574;2024-01-11T06:41:28;66.60;;;54.40;;
35056;SDS011;21241;51.828;19.574;2024-01-11T06:43:56;60.20;;;51.30;;
35056;SDS011;21241;51.828;19.574;2024-01-11T06:46:28;59.60;;;53.00;;
35056;SDS011;21241;51.828;19.574;2024-01-11T06:48:56;59.20;;;52.20;;
35056;SDS011;21241;51.828;19.574;2024-01-11T06:51:24;55.40;;;49.40;;
35056;SDS011;21241;51.828;19.574;2024-01-11T06:53:51;59.40;;;50.60;;
35056;SDS011;21241;51.828;19.574;2024-01-11T06:56:19;58.60;;;49.80;;
35056;SDS011;21241;51.828;19.574;2024-01-11T06:58:48;58.20;;;50.70;;
35056;SDS011;21241;51.828;19.574;2024-01-11T07:01:17;56.00;;;49.00;;
35056;SDS011;21241;51.828;19.574;2024-01-11T07:03:46;56.50;;;50.20;;
35056;SDS011;21241;51.828;19.574;2024-01-11T07:06:13;59.00;;;51.80;;
35056;SDS011;21241;51.828;19.574;2024-01-11T07:08:41;58.60;;;49.90;;
35056;SDS011;21241;51.828;19.574;2024-01-11T07:11:09;56.90;;;48.80;;
35056;SDS011;21241;51.828;19.574;2024-01-11T07:13:37;53.90;;;48.10;;
35056;SDS011;21241;51.828;19.574;2024-01-11T07:16:05;54.70;;;47.90;;
35056;SDS011;21241;51.828;19.574;2024-01-11T07:18:33;57.60;;;50.50;;
35056;SDS011;21241;51.828;19.574;2024-01-11T07:21:01;54.10;;;48.30;;
35056;SDS011;21241;51.828;19.574;2024-01-11T07:23:29;57.00;;;47.70;;
35056;SDS011;21241;51.828;19.574;2024-01-11T07:25:57;52.50;;;46.30;;
35056;SDS011;21241;51.828;19.574;2024-01-11T07:28:26;51.60;;;46.10;;
35056;SDS011;21241;51.828;19.574;2024-01-11T07:30:54;50.00;;;44.50;;
35056;SDS011;21241;51.828;19.574;2024-01-11T07:33:21;49.40;;;43.10;;
35056;SDS011;21241;51.828;19.574;2024-01-11T07:35:50;49.20;;;43.80;;
35056;SDS011;21241;51.828;19.574;2024-01-11T07:38:18;52.70;;;46.90;;
35056;SDS011;21241;51.828;19.574;2024-01-11T07:40:45;50.50;;;44.50;;
35056;SDS011;21241;51.828;19.574;2024-01-11T07:43:14;52.50;;;45.20;;
35056;SDS011;21241;51.828;19.574;2024-01-11T07:45:41;52.30;;;44.80;;
35056;SDS011;21241;51.828;19.574;2024-01-11T07:48:09;52.30;;;45.50;;
35056;SDS011;21241;51.828;19.574;2024-01-11T07:50:37;48.80;;;43.40;;
35056;SDS011;21241;51.828;19.574;2024-01-11T07:53:05;48.70;;;43.20;;
35056;SDS011;21241;51.828;19.574;2024-01-11T07:55:33;54.80;;;45.10;;
35056;SDS011;21241;51.828;19.574;2024-01-11T07:58:01;49.10;;;41.30;;
35056;SDS011;21241;51.828;19.574;2024-01-11T08:00:29;48.00;;;41.50;;
35056;SDS011;21241;51.828;19.574;2024-01-11T08:02:56;49.80;;;40.90;;
35056;SDS011;21241;51.828;19.574;2024-01-11T08:05:25;49.40;;;41.60;;
35056;SDS011;21241;51.828;19.574;2024-01-11T08:07:53;48.20;;;41.20;;
35056;SDS011;21241;51.828;19.574;2024-01-11T08:10:21;51.00;;;44.50;;
35056;SDS011;21241;51.828;19.574;2024-01-11T08:12:48;48.10;;;41.60;;
35056;SDS011;21241;51.828;19.574;2024-01-11T08:15:16;48.30;;;40.00;;
35056;SDS011;21241;51.828;19.574;2024-01-11T08:17:44;47.40;;;39.50;;
35056;SDS011;21241;51.828;19.574;2024-01-11T08:20:15;44.00;;;38.90;;
35056;SDS011;21241;51.828;19.574;2024-01-11T08:22:43;46.80;;;37.40;;
35056;SDS011;21241;51.828;19.574;2024-01-11T08:25:11;45.30;;;38.70;;
35056;SDS011;21241;51.828;19.574;2024-01-11T08:27:40;44.80;;;38.60;;
35056;SDS011;21241;51.828;19.574;2024-01-11T08:30:08;44.20;;;39.40;;
35056;SDS011;21241;51.828;19.574;2024-01-11T08:32:36;46.80;;;38.50;;
35056;SDS011;21241;51.828;19.574;2024-01-11T08:35:08;43.40;;;36.40;;
35056;SDS011;21241;51.828;19.574;2024-01-11T08:37:38;43.70;;;38.00;;
35056;SDS011;21241;51.828;19.574;2024-01-11T08:40:07;45.60;;;38.10;;
35056;SDS011;21241;51.828;19.574;2024-01-11T08:42:37;45.80;;;38.40;;
35056;SDS011;21241;51.828;19.574;2024-01-11T08:45:06;51.30;;;44.80;;
35056;SDS011;21241;51.828;19.574;2024-01-11T08:47:34;40.60;;;35.20;;
35056;SDS011;21241;51.828;19.574;2024-01-11T08:50:03;43.20;;;37.90;;
35056;SDS011;21241;51.828;19.574;2024-01-11T08:52:34;43.00;;;37.10;;
35056;SDS011;21241;51.828;19.574;2024-01-11T08:55:01;44.10;;;37.00;;
35056;SDS011;21241;51.828;19.574;2024-01-11T08:57:29;48.00;;;40.20;;
35056;SDS011;21241;51.828;19.574;2024-01-11T08:59:57;51.90;;;45.60;;
35056;SDS011;21241;51.828;19.574;2024-01-11T09:02:25;44.60;;;39.00;;
35056;SDS011;21241;51.828;19.574;2024-01-11T09:04:54;47.40;;;40.30;;
35056;SDS011;21241;51.828;19.574;2024-01-11T09:07:22;44.30;;;39.30;;
35056;SDS011;21241;51.828;19.574;2024-01-11T09:09:50;59.00;;;48.40;;
35056;SDS011;21241;51.828;19.574;2024-01-11T09:12:24;65.50;;;54.60;;
35056;SDS011;21241;51.828;19.574;2024-01-11T09:14:51;88.50;;;69.80;;
35056;SDS011;21241;51.828;19.574;2024-01-11T09:17:20;73.90;;;57.60;;
35056;SDS011;21241;51.828;19.574;2024-01-11T09:19:47;75.50;;;59.10;;
35056;SDS011;21241;51.828;19.574;2024-01-11T09:22:15;71.50;;;58.70;;
35056;SDS011;21241;51.828;19.574;2024-01-11T09:24:43;73.20;;;57.20;;
35056;SDS011;21241;51.828;19.574;2024-01-11T09:27:11;78.00;;;68.00;;
35056;SDS011;21241;51.828;19.574;2024-01-11T09:29:42;54.00;;;46.20;;
35056;SDS011;21241;51.828;19.574;2024-01-11T09:32:12;49.20;;;40.50;;
35056;SDS011;21241;51.828;19.574;2024-01-11T09:34:40;49.00;;;41.50;;
35056;SDS011;21241;51.828;19.574;2024-01-11T09:37:08;56.30;;;44.90;;
35056;SDS011;21241;51.828;19.574;2024-01-11T09:39:36;60.60;;;49.10;;
35056;SDS011;21241;51.828;19.574;2024-01-11T09:42:06;47.80;;;38.70;;
35056;SDS011;21241;51.828;19.574;2024-01-11T09:44:38;48.20;;;39.80;;
35056;SDS011;21241;51.828;19.574;2024-01-11T09:47:08;48.00;;;38.40;;
35056;SDS011;21241;51.828;19.574;2024-01-11T09:49:43;52.30;;;42.00;;
35056;SDS011;21241;51.828;19.574;2024-01-11T09:52:12;46.80;;;37.80;;
35056;SDS011;21241;51.828;19.574;2024-01-11T09:54:43;48.80;;;37.80;;
35056;SDS011;21241;51.828;19.574;2024-01-11T09:57:11;68.90;;;57.40;;
35056;SDS011;21241;51.828;19.574;2024-01-11T09:59:38;47.10;;;35.10;;
35056;SDS011;21241;51.828;19.574;2024-01-11T10:02:07;45.50;;;35.50;;
35056;SDS011;21241;51.828;19.574;2024-01-11T10:04:37;44.80;;;34.30;;
35056;SDS011;21241;51.828;19.574;2024-01-11T10:07:05;56.60;;;50.20;;
35056;SDS011;21241;51.828;19.574;2024-01-11T10:09:37;42.30;;;33.60;;
35056;SDS011;21241;51.828;19.574;2024-01-11T10:12:05;46.20;;;36.70;;
35056;SDS011;21241;51.828;19.574;2024-01-11T10:14:33;46.70;;;35.60;;
35056;SDS011;21241;51.828;19.574;2024-01-11T10:17:01;46.00;;;37.30;;
35056;SDS011;21241;51.828;19.574;2024-01-11T10:19:29;45.10;;;36.30;;
35056;SDS011;21241;51.828;19.574;2024-01-11T10:21:57;49.60;;;36.80;;
35056;SDS011;21241;51.828;19.574;2024-01-11T10:24:26;48.70;;;38.10;;
35056;SDS011;21241;51.828;19.574;2024-01-11T10:26:57;47.00;;;37.90;;
35056;SDS011;21241;51.828;19.574;2024-01-11T10:29:32;49.50;;;38.80;;
35056;SDS011;21241;51.828;19.574;2024-01-11T10:32:01;48.50;;;38.20;;
35056;SDS011;21241;51.828;19.574;2024-01-11T10:34:29;47.30;;;38.10;;
35056;SDS011;21241;51.828;19.574;2024-01-11T10:36:56;46.70;;;36.90;;
35056;SDS011;21241;51.828;19.574;2024-01-11T10:39:25;46.20;;;36.10;;
35056;SDS011;21241;51.828;19.574;2024-01-11T10:42:03;44.70;;;35.30;;
35056;SDS011;21241;51.828;19.574;2024-01-11T10:44:34;45.00;;;35.70;;
35056;SDS011;21241;51.828;19.574;2024-01-11T10:47:03;50.30;;;37.50;;
35056;SDS011;21241;51.828;19.574;2024-01-11T10:49:34;49.60;;;36.50;;
35056;SDS011;21241;51.828;19.574;2024-01-11T10:52:07;43.70;;;34.50;;
35056;SDS011;21241;51.828;19.574;2024-01-11T10:54:35;46.60;;;36.30;;
35056;SDS011;21241;51.828;19.574;2024-01-11T10:57:04;51.80;;;35.90;;
35056;SDS011;21241;51.828;19.574;2024-01-11T10:59:33;51.60;;;38.30;;
35056;SDS011;21241;51.828;19.574;2024-01-11T11:02:06;46.30;;;35.50;;
35056;SDS011;21241;51.828;19.574;2024-01-11T11:04:35;49.10;;;36.60;;
35056;SDS011;21241;51.828;19.574;2024-01-11T11:07:03;50.80;;;38.10;;
35056;SDS011;21241;51.828;19.574;2024-01-11T11:09:34;49.00;;;37.10;;
35056;SDS011;21241;51.828;19.574;2024-01-11T11:12:03;51.20;;;36.30;;
35056;SDS011;21241;51.828;19.574;2024-01-11T11:14:32;48.30;;;35.00;;
35056;SDS011;21241;51.828;19.574;2024-01-11T11:17:02;48.40;;;36.10;;
35056;SDS011;21241;51.828;19.574;2024-01-11T11:19:32;48.30;;;35.60;;
35056;SDS011;21241;51.828;19.574;2024-01-11T11:22:00;44.50;;;34.00;;
35056;SDS011;21241;51.828;19.574;2024-01-11T11:24:33;47.70;;;35.90;;
35056;SDS011;21241;51.828;19.574;2024-01-11T11:27:02;51.20;;;42.10;;
35056;SDS011;21241;51.828;19.574;2024-01-11T11:29:31;44.90;;;35.50;;
35056;SDS011;21241;51.828;19.574;2024-01-11T11:31:58;47.60;;;36.20;;
35056;SDS011;21241;51.828;19.574;2024-01-11T11:34:39;44.70;;;34.00;;
35056;SDS011;21241;51.828;19.574;2024-01-11T11:37:09;47.80;;;36.30;;
35056;SDS011;21241;51.828;19.574;2024-01-11T11:39:37;43.20;;;34.00;;
35056;SDS011;21241;51.828;19.574;2024-01-11T11:42:05;209.20;;;190.60;;
35056;SDS011;21241;51.828;19.574;2024-01-11T11:44:33;63.00;;;56.10;;
35056;SDS011;21241;51.828;19.574;2024-01-11T11:47:17;43.50;;;33.70;;
35056;SDS011;21241;51.828;19.574;2024-01-11T11:50:06;43.90;;;33.40;;
35056;SDS011;21241;51.828;19.574;2024-01-11T11:52:36;43.00;;;33.30;;
35056;SDS011;21241;51.828;19.574;2024-01-11T11:55:06;42.00;;;32.10;;
35056;SDS011;21241;51.828;19.574;2024-01-11T11:57:35;41.00;;;30.70;;
35056;SDS011;21241;51.828;19.574;2024-01-11T12:00:04;41.90;;;31.30;;
35056;SDS011;21241;51.828;19.574;2024-01-11T12:02:39;44.70;;;36.10;;
35056;SDS011;21241;51.828;19.574;2024-01-11T12:05:07;45.10;;;33.40;;
35056;SDS011;21241;51.828;19.574;2024-01-11T12:07:36;40.60;;;29.60;;
35056;SDS011;21241;51.828;19.574;2024-01-11T12:10:04;44.10;;;32.50;;
35056;SDS011;21241;51.828;19.574;2024-01-11T12:12:34;45.00;;;33.80;;
35056;SDS011;21241;51.828;19.574;2024-01-11T12:15:05;42.10;;;31.50;;
35056;SDS011;21241;51.828;19.574;2024-01-11T12:17:34;47.40;;;33.80;;
35056;SDS011;21241;51.828;19.574;2024-01-11T12:20:02;46.60;;;33.40;;
35056;SDS011;21241;51.828;19.574;2024-01-11T12:22:31;45.30;;;34.10;;
35056;SDS011;21241;51.828;19.574;2024-01-11T12:24:59;47.50;;;37.00;;
35056;SDS011;21241;51.828;19.574;2024-01-11T12:27:27;47.70;;;34.10;;
35056;SDS011;21241;51.828;19.574;2024-01-11T12:29:55;48.00;;;36.20;;
35056;SDS011;21241;51.828;19.574;2024-01-11T12:32:27;50.10;;;38.10;;
35056;SDS011;21241;51.828;19.574;2024-01-11T12:34:55;55.30;;;39.10;;
35056;SDS011;21241;51.828;19.574;2024-01-11T12:37:23;51.30;;;36.70;;
35056;SDS011;21241;51.828;19.574;2024-01-11T12:39:56;51.30;;;38.70;;
35056;SDS011;21241;51.828;19.574;2024-01-11T12:42:26;56.20;;;40.20;;
35056;SDS011;21241;51.828;19.574;2024-01-11T12:44:55;54.60;;;41.70;;
35056;SDS011;21241;51.828;19.574;2024-01-11T12:47:26;59.00;;;45.60;;
35056;SDS011;21241;51.828;19.574;2024-01-11T12:49:54;54.30;;;38.70;;
35056;SDS011;21241;51.828;19.574;2024-01-11T12:52:22;55.30;;;37.70;;
35056;SDS011;21241;51.828;19.574;2024-01-11T12:54:52;56.70;;;40.40;;
35056;SDS011;21241;51.828;19.574;2024-01-11T12:57:20;60.00;;;43.70;;
35056;SDS011;21241;51.828;19.574;2024-01-11T12:59:48;59.90;;;45.30;;
35056;SDS011;21241;51.828;19.574;2024-01-11T13:02:16;67.60;;;46.40;;
35056;SDS011;21241;51.828;19.574;2024-01-11T13:04:47;62.10;;;44.50;;
35056;SDS011;21241;51.828;19.574;2024-01-11T13:07:15;58.50;;;40.50;;
35056;SDS011;21241;51.828;19.574;2024-01-11T13:09:43;55.30;;;40.80;;
35056;SDS011;21241;51.828;19.574;2024-01-11T13:12:11;60.40;;;41.80;;
35056;SDS011;21241;51.828;19.574;2024-01-11T13:14:39;63.50;;;43.60;;
35056;SDS011;21241;51.828;19.574;2024-01-11T13:17:08;53.90;;;38.40;;
35056;SDS011;21241;51.828;19.574;2024-01-11T13:19:36;61.00;;;43.20;;
35056;SDS011;21241;51.828;19.574;2024-01-11T13:22:04;68.10;;;49.20;;
35056;SDS011;21241;51.828;19.574;2024-01-11T13:24:32;63.80;;;43.90;;
35056;SDS011;21241;51.828;19.574;2024-01-11T13:27:00;62.00;;;42.30;;
35056;SDS011;21241;51.828;19.574;2024-01-11T13:29:29;61.50;;;45.10;;
35056;SDS011;21241;51.828;19.574;2024-01-11T13:31:57;65.60;;;46.90;;
35056;SDS011;21241;51.828;19.574;2024-01-11T13:34:27;87.60;;;72.00;;
35056;SDS011;21241;51.828;19.574;2024-01-11T13:36:55;76.20;;;58.50;;
35056;SDS011;21241;51.828;19.574;2024-01-11T13:39:23;69.10;;;50.50;;
35056;SDS011;21241;51.828;19.574;2024-01-11T13:41:51;73.40;;;51.20;;
35056;SDS011;21241;51.828;19.574;2024-01-11T13:44:19;62.00;;;43.60;;
35056;SDS011;21241;51.828;19.574;2024-01-11T13:46:51;56.60;;;38.90;;
35056;SDS011;21241;51.828;19.574;2024-01-11T13:49:19;52.90;;;39.60;;
35056;SDS011;21241;51.828;19.574;2024-01-11T13:51:50;65.10;;;49.00;;
35056;SDS011;21241;51.828;19.574;2024-01-11T13:54:27;65.30;;;44.10;;
35056;SDS011;21241;51.828;19.574;2024-01-11T13:56:55;55.80;;;41.10;;
35056;SDS011;21241;51.828;19.574;2024-01-11T13:59:23;58.50;;;38.70;;
35056;SDS011;21241;51.828;19.574;2024-01-11T14:01:51;54.90;;;41.00;;
35056;SDS011;21241;51.828;19.574;2024-01-11T14:04:19;52.30;;;38.00;;
35056;SDS011;21241;51.828;19.574;2024-01-11T14:06:50;49.00;;;35.80;;
35056;SDS011;21241;51.828;19.574;2024-01-11T14:09:20;45.60;;;35.70;;
35056;SDS011;21241;51.828;19.574;2024-01-11T14:11:49;45.60;;;33.60;;
35056;SDS011;21241;51.828;19.574;2024-01-11T14:14:17;46.60;;;35.80;;
35056;SDS011;21241;51.828;19.574;2024-01-11T14:16:46;48.70;;;35.80;;